Time;durP1;ratioP1;P1;durP2;ratioP2;P2;SDS_P1;SDS_P2;PMS_P1;PMS_P2;Temp;Humidity;BMP_temperature;BMP_pressure;BME280_temperature;BME280_humidity;BME280_pressure;Samples;Min_cycle;Max_cycle;Signal;HPM_P1;HPM_P2
2022/05/04 00:01:27;;;;;;;19.27;16.90;;;11.90;90.20;;;;;;5034157;28;20579;-53
2022/05/04 00:03:53;;;;;;;18.87;16.00;;;11.90;89.80;;;;;;5037642;28;20853;-53
2022/05/04 00:06:21;;;;;;;17.57;15.57;;;11.90;89.10;;;;;;5037091;28;20486;-53
2022/05/04 00:08:48;;;;;;;20.97;18.20;;;11.70;88.70;;;;;;5034516;28;20478;-53
2022/05/04 00:11:16;;;;;;;23.77;18.83;;;11.30;89.60;;;;;;5036895;28;20493;-53
2022/05/04 00:13:43;;;;;;;21.60;18.50;;;11.10;91.00;;;;;;5034804;28;20490;-52
2022/05/04 00:16:10;;;;;;;20.73;17.53;;;11.00;91.50;;;;;;5037145;28;20498;-52
2022/05/04 00:18:37;;;;;;;20.73;17.40;;;11.00;91.20;;;;;;5035991;28;20497;-53
2022/05/04 00:21:03;;;;;;;23.00;19.20;;;11.00;90.80;;;;;;5035057;28;20474;-53
2022/05/04 00:23:30;;;;;;;20.70;18.13;;;11.10;90.30;;;;;;5037252;28;20560;-53
2022/05/04 00:25:57;;;;;;;25.30;18.10;;;11.10;90.20;;;;;;5040013;28;20735;-53
2022/05/04 00:28:25;;;;;;;26.77;19.90;;;11.10;90.40;;;;;;5035150;28;20506;-53
2022/05/04 00:30:52;;;;;;;25.10;19.30;;;11.00;91.50;;;;;;5036675;28;20490;-52
2022/05/04 00:33:19;;;;;;;26.20;21.60;;;10.90;92.00;;;;;;5036619;28;20923;-53
2022/05/04 00:35:45;;;;;;;26.33;20.03;;;10.70;92.30;;;;;;5035154;28;20491;-53
2022/05/04 00:38:12;;;;;;;22.63;18.07;;;10.60;92.70;;;;;;5037335;28;20496;-53
2022/05/04 00:40:39;;;;;;;20.47;16.80;;;10.70;91.90;;;;;;5036783;28;20482;-53
2022/05/04 00:43:19;;;;;;;19.40;16.23;;;10.80;91.10;;;;;;5049255;28;20485;-52
2022/05/04 00:45:47;;;;;;;24.80;17.97;;;10.80;90.60;;;;;;5038039;28;21093;-53
2022/05/04 00:48:13;;;;;;;20.50;18.27;;;10.80;90.20;;;;;;5047025;28;20480;-52
2022/05/04 00:50:40;;;;;;;22.20;17.70;;;10.70;90.20;;;;;;5031097;28;20486;-52
2022/05/04 00:53:07;;;;;;;22.70;18.67;;;10.70;90.40;;;;;;5037284;28;20501;-52
2022/05/04 00:55:34;;;;;;;22.70;19.00;;;10.70;90.40;;;;;;5035709;28;20493;-52
2022/05/04 01:00:51;;;;;;;21.40;18.50;;;10.70;90.00;;;;;;5032781;28;20547;-52
2022/05/04 01:03:18;;;;;;;18.57;16.57;;;10.70;90.00;;;;;;5056308;28;21088;-52
2022/05/04 01:05:44;;;;;;;18.70;16.70;;;10.70;89.80;;;;;;5028797;28;20527;-52
2022/05/04 01:08:12;;;;;;;24.13;17.00;;;10.70;89.40;;;;;;5035465;28;20493;-53
2022/05/04 01:10:38;;;;;;;21.83;17.40;;;10.60;89.20;;;;;;5059599;28;20493;-52
2022/05/04 01:13:05;;;;;;;20.13;16.67;;;10.60;89.20;;;;;;5036080;28;20503;-53
2022/05/04 01:15:32;;;;;;;21.73;16.33;;;10.60;88.70;;;;;;5033988;28;20810;-52
2022/05/04 01:18:00;;;;;;;18.17;16.37;;;10.60;88.90;;;;;;5035841;28;20480;-52
2022/05/04 01:20:26;;;;;;;25.47;19.60;;;10.40;89.80;;;;;;5037434;28;20988;-52
2022/05/04 01:22:55;;;;;;;27.50;20.87;;;10.30;90.00;;;;;;5037204;28;20491;-52
2022/05/04 01:25:22;;;;;;;21.43;18.93;;;10.10;90.50;;;;;;5037884;28;20572;-52
2022/05/04 01:27:49;;;;;;;24.27;19.07;;;10.00;91.20;;;;;;5033617;28;20481;-52
2022/05/04 01:30:15;;;;;;;18.80;15.93;;;10.00;91.10;;;;;;5039445;28;20496;-52
2022/05/04 01:32:42;;;;;;;21.60;17.73;;;10.00;90.60;;;;;;5038350;28;20979;-52
2022/05/04 01:35:09;;;;;;;20.83;17.63;;;10.10;90.30;;;;;;5038715;28;20845;-52
2022/05/04 01:37:36;;;;;;;18.90;16.40;;;10.10;90.20;;;;;;5032832;28;20547;-52
2022/05/04 01:40:05;;;;;;;21.47;16.47;;;10.10;90.00;;;;;;5049328;28;20479;-52
2022/05/04 01:42:31;;;;;;;25.17;17.10;;;10.10;89.40;;;;;;5045176;28;20486;-52
2022/05/04 01:44:58;;;;;;;25.30;17.20;;;10.10;89.50;;;;;;5038193;28;20880;-52
2022/05/04 01:47:25;;;;;;;19.13;16.10;;;10.00;89.80;;;;;;5036021;28;20486;-52
2022/05/04 01:49:51;;;;;;;24.57;18.03;;;10.00;90.70;;;;;;5036987;28;20490;-52
2022/05/04 01:52:18;;;;;;;25.17;19.77;;;9.80;91.90;;;;;;5038719;28;20715;-52
2022/05/04 01:54:45;;;;;;;26.50;18.67;;;9.70;92.30;;;;;;5036496;28;20486;-52
2022/05/04 01:57:13;;;;;;;22.10;16.73;;;9.70;92.00;;;;;;5035761;28;20902;-52
2022/05/04 01:59:40;;;;;;;19.33;16.50;;;9.70;91.20;;;;;;5024888;28;20485;-53
2022/05/04 02:02:07;;;;;;;21.20;15.90;;;9.70;90.70;;;;;;5052389;28;20574;-52
2022/05/04 02:04:34;;;;;;;19.10;15.60;;;9.80;90.50;;;;;;5060940;28;21090;-53
2022/05/04 02:07:02;;;;;;;20.13;16.77;;;9.70;90.40;;;;;;5037388;28;20836;-52
2022/05/04 02:09:29;;;;;;;22.80;16.57;;;9.80;90.50;;;;;;4992689;28;20482;-53
2022/05/04 02:11:56;;;;;;;20.60;16.27;;;9.80;90.60;;;;;;5071027;28;20512;-52
2022/05/04 02:14:25;;;;;;;18.77;16.27;;;9.80;90.60;;;;;;5034066;28;20489;-53
2022/05/04 02:16:52;;;;;;;20.20;16.00;;;9.80;90.40;;;;;;5049187;28;20910;-53
2022/05/04 02:19:18;;;;;;;24.40;17.00;;;9.90;90.20;;;;;;5040816;28;20479;-53
2022/05/04 02:21:45;;;;;;;22.73;16.73;;;9.80;90.00;;;;;;5039032;28;20492;-53
2022/05/04 02:24:12;;;;;;;19.23;16.20;;;9.80;89.60;;;;;;5039950;28;21003;-53
2022/05/04 02:26:38;;;;;;;19.13;15.70;;;9.70;89.20;;;;;;5030229;28;20902;-52
2022/05/04 02:29:05;;;;;;;18.50;14.73;;;9.50;89.20;;;;;;5034836;28;20496;-53
2022/05/04 02:31:33;;;;;;;20.80;14.80;;;9.40;89.70;;;;;;5021050;28;20497;-53
2022/05/04 02:33:59;;;;;;;20.50;14.30;;;9.30;89.80;;;;;;5071846;28;20820;-53
2022/05/04 02:39:11;;;;;;;21.97;17.67;;;9.30;90.00;;;;;;5032639;28;20570;-53
2022/05/04 02:41:37;;;;;;;19.87;16.47;;;9.40;90.10;;;;;;5039151;28;20485;-53
2022/05/04 02:44:04;;;;;;;17.50;15.40;;;9.40;90.10;;;;;;5042088;28;20479;-53
2022/05/04 02:46:33;;;;;;;18.13;15.23;;;9.40;89.80;;;;;;5038616;28;20489;-53
2022/05/04 02:49:00;;;;;;;17.00;14.97;;;9.40;89.50;;;;;;5036476;28;20512;-53
2022/05/04 02:51:27;;;;;;;21.10;15.37;;;9.30;89.00;;;;;;5040470;28;20497;-53
2022/05/04 02:53:54;;;;;;;18.37;16.37;;;9.20;89.20;;;;;;5037347;28;20477;-53
2022/05/04 02:56:20;;;;;;;22.13;16.80;;;9.10;89.70;;;;;;5038204;28;20496;-53
2022/05/04 02:58:51;;;;;;;18.40;15.80;;;9.00;90.50;;;;;;5037249;28;20471;-53
2022/05/04 03:04:06;;;;;;;19.70;16.30;;;9.00;90.30;;;;;;5025997;28;20610;-54
2022/05/04 03:06:32;;;;;;;16.27;14.07;;;9.00;90.20;;;;;;5036915;28;20512;-53
2022/05/04 03:08:59;;;;;;;21.57;16.50;;;9.10;90.30;;;;;;5044948;28;20488;-54
2022/05/04 03:14:10;;;;;;;19.60;14.97;;;9.30;90.10;;;;;;5053014;28;20475;-53
2022/05/04 03:16:37;;;;;;;18.40;14.97;;;9.40;90.00;;;;;;5027195;28;20938;-54
2022/05/04 03:19:06;;;;;;;24.43;17.50;;;9.30;89.80;;;;;;5017558;28;20495;-53
2022/05/04 03:21:33;;;;;;;20.80;15.37;;;9.20;90.30;;;;;;5013079;28;20471;-53
2022/05/04 03:24:00;;;;;;;22.20;16.47;;;9.20;90.30;;;;;;5045468;28;20497;-53
2022/05/04 03:26:26;;;;;;;19.03;15.17;;;9.30;90.30;;;;;;5029826;28;21035;-53
2022/05/04 03:28:53;;;;;;;18.70;14.50;;;9.40;90.20;;;;;;5028718;28;20511;-53
2022/05/04 03:31:20;;;;;;;20.50;15.60;;;9.40;90.00;;;;;;5019416;28;20919;-53
2022/05/04 03:33:47;;;;;;;20.70;17.13;;;9.50;89.40;;;;;;5041852;28;20523;-53
2022/05/04 03:36:15;;;;;;;21.03;16.40;;;9.40;89.70;;;;;;5039069;28;20492;-53
2022/05/04 03:38:42;;;;;;;19.80;15.37;;;9.30;88.90;;;;;;5002443;28;20498;-54
2022/05/04 03:41:08;;;;;;;16.60;14.80;;;9.30;89.70;;;;;;5041069;28;20492;-54
2022/05/04 03:43:35;;;;;;;24.70;16.70;;;9.30;90.00;;;;;;4999058;28;20501;-53
2022/05/04 03:46:17;;;;;;;19.27;15.97;;;9.30;90.00;;;;;;5005025;28;20490;-53
2022/05/04 03:48:44;;;;;;;17.40;14.47;;;9.30;89.70;;;;;;4992565;28;21508;-54
2022/05/04 03:51:13;;;;;;;19.70;15.13;;;9.30;88.90;;;;;;5059178;28;21041;-54
2022/05/04 03:53:42;;;;;;;16.30;13.57;;;9.30;88.40;;;;;;5032022;28;20496;-53
2022/05/04 03:56:09;;;;;;;16.63;14.30;;;9.30;88.40;;;;;;5038845;28;20485;-53
2022/05/04 03:58:37;;;;;;;17.63;14.90;;;9.30;88.40;;;;;;5035885;28;20500;-53
2022/05/04 04:01:03;;;;;;;20.27;15.40;;;9.30;88.70;;;;;;5029447;28;20488;-53
2022/05/04 04:03:30;;;;;;;20.70;14.70;;;9.30;89.00;;;;;;5046620;28;20558;-54
2022/05/04 04:05:57;;;;;;;18.83;15.10;;;9.30;88.70;;;;;;5018779;28;20535;-53
2022/05/04 04:08:23;;;;;;;16.70;14.17;;;9.30;88.60;;;;;;5059996;28;21148;-53
2022/05/04 04:10:52;;;;;;;18.47;14.73;;;9.30;88.40;;;;;;5033667;28;20502;-53
2022/05/04 04:13:19;;;;;;;20.80;15.80;;;9.30;88.60;;;;;;5038444;28;20580;-53
2022/05/04 04:15:47;;;;;;;18.50;14.00;;;9.20;88.20;;;;;;5034985;28;20844;-53
2022/05/04 04:18:14;;;;;;;17.43;14.90;;;9.10;87.80;;;;;;5036965;28;21109;-53
2022/05/04 04:23:24;;;;;;;20.43;15.40;;;8.80;88.60;;;;;;5016687;28;20491;-53
2022/05/04 04:25:53;;;;;;;21.87;14.30;;;8.60;89.10;;;;;;5050922;28;21062;-53
2022/05/04 04:28:20;;;;;;;19.87;15.77;;;8.30;89.60;;;;;;5049037;28;20966;-53
2022/05/04 04:30:47;;;;;;;17.87;14.60;;;8.10;90.20;;;;;;5027024;28;20898;-53
2022/05/04 04:33:14;;;;;;;22.63;15.83;;;8.00;90.80;;;;;;5037009;28;20488;-53
2022/05/04 04:35:40;;;;;;;24.53;16.33;;;7.90;91.50;;;;;;5037076;28;20485;-54
2022/05/04 04:38:08;;;;;;;23.30;16.77;;;7.90;92.00;;;;;;5026612;28;20530;-55
2022/05/04 04:40:34;;;;;;;20.10;15.80;;;7.80;92.20;;;;;;5067342;28;20604;-55
2022/05/04 04:43:02;;;;;;;21.27;16.77;;;7.80;92.30;;;;;;5037612;28;20573;-55
2022/05/04 04:45:30;;;;;;;19.53;15.33;;;7.80;92.60;;;;;;5036583;28;20486;-55
2022/05/04 04:47:57;;;;;;;23.17;15.90;;;7.80;92.70;;;;;;5037378;28;20566;-55
2022/05/04 04:50:24;;;;;;;21.90;16.17;;;7.90;92.50;;;;;;5033932;28;21144;-55
2022/05/04 04:52:51;;;;;;;20.67;16.70;;;8.00;92.10;;;;;;5037015;28;20755;-55
2022/05/04 04:55:18;;;;;;;20.67;16.50;;;8.00;91.60;;;;;;5038006;28;21010;-55
2022/05/04 04:57:45;;;;;;;21.53;16.37;;;7.90;91.60;;;;;;5031593;28;20495;-54
2022/05/04 05:00:14;;;;;;;22.90;17.47;;;7.70;91.90;;;;;;5036465;28;20479;-54
2022/05/04 05:02:41;;;;;;;22.90;17.43;;;7.70;92.50;;;;;;5037511;28;20482;-54
2022/05/04 05:05:09;;;;;;;26.73;17.90;;;7.80;93.00;;;;;;5025858;28;20939;-54
2022/05/04 05:07:36;;;;;;;24.90;17.90;;;7.70;93.50;;;;;;5043311;28;21056;-54
2022/05/04 05:10:03;;;;;;;25.23;17.30;;;7.70;93.90;;;;;;5038054;28;20494;-55
2022/05/04 05:12:30;;;;;;;21.07;15.80;;;7.80;94.10;;;;;;5032205;28;21279;-54
2022/05/04 05:17:42;;;;;;;24.57;17.43;;;8.30;93.40;;;;;;5034771;28;20572;-55
2022/05/04 05:20:10;;;;;;;24.30;18.20;;;8.50;93.10;;;;;;5034744;28;20487;-54
2022/05/04 05:22:36;;;;;;;21.87;15.43;;;8.70;93.00;;;;;;5036856;28;20899;-55
2022/05/04 05:25:04;;;;;;;21.17;16.50;;;8.80;92.50;;;;;;5034662;28;20488;-55
2022/05/04 05:27:31;;;;;;;18.37;14.97;;;8.90;92.30;;;;;;5034789;28;20534;-55
2022/05/04 05:29:58;;;;;;;16.93;14.57;;;9.00;92.40;;;;;;5035835;28;20498;-55
2022/05/04 05:32:25;;;;;;;18.40;15.03;;;9.10;92.00;;;;;;5037106;28;20488;-55
2022/05/04 05:34:53;;;;;;;19.90;15.47;;;9.10;91.90;;;;;;5041429;28;21049;-55
2022/05/04 05:37:20;;;;;;;17.83;14.73;;;9.20;92.00;;;;;;5040521;28;20503;-55
2022/05/04 05:39:47;;;;;;;24.60;16.60;;;9.10;92.30;;;;;;5042147;28;20510;-55
2022/05/04 05:42:13;;;;;;;21.00;15.60;;;9.20;92.50;;;;;;5061893;28;20530;-54
2022/05/04 05:44:40;;;;;;;25.23;17.07;;;9.30;92.40;;;;;;5044754;28;20490;-55
2022/05/04 05:47:08;;;;;;;22.47;17.17;;;9.40;92.40;;;;;;5048529;28;20487;-55
2022/05/04 05:49:34;;;;;;;20.40;16.90;;;9.50;92.40;;;;;;5039181;28;20922;-55
2022/05/04 05:52:02;;;;;;;21.73;16.37;;;9.60;93.00;;;;;;5029459;28;20494;-55
2022/05/04 05:54:32;;;;;;;25.50;17.70;;;9.70;92.90;;;;;;5049031;28;20485;-55
2022/05/04 05:56:58;;;;;;;23.33;17.70;;;10.00;92.50;;;;;;5037582;28;20505;-55
2022/05/04 05:59:25;;;;;;;31.67;18.03;;;10.20;92.60;;;;;;5038250;28;20878;-55
2022/05/04 06:01:51;;;;;;;26.33;19.37;;;10.40;92.30;;;;;;5062606;28;20833;-55
2022/05/04 06:04:18;;;;;;;22.97;16.60;;;10.60;92.10;;;;;;5037421;28;20472;-55
2022/05/04 06:06:46;;;;;;;21.53;17.00;;;10.70;92.10;;;;;;5037209;28;20918;-55
2022/05/04 06:09:14;;;;;;;23.73;17.40;;;10.80;92.20;;;;;;5061934;28;20869;-55
2022/05/04 06:11:41;;;;;;;23.50;17.10;;;11.00;92.10;;;;;;5037347;28;20533;-55
2022/05/04 06:14:07;;;;;;;19.23;16.43;;;11.20;92.10;;;;;;5040547;28;20816;-55
2022/05/04 06:16:34;;;;;;;23.77;18.00;;;11.30;92.10;;;;;;5035438;28;20561;-55
2022/05/04 06:19:01;;;;;;;22.53;17.80;;;11.40;91.80;;;;;;5037774;28;20472;-55
2022/05/04 06:21:28;;;;;;;22.03;17.03;;;11.40;91.90;;;;;;5040177;28;20497;-55
2022/05/04 06:23:54;;;;;;;20.27;16.40;;;11.40;91.90;;;;;;5039283;28;20492;-55
2022/05/04 06:26:23;;;;;;;22.90;18.20;;;11.50;92.00;;;;;;5040279;28;20840;-55
2022/05/04 06:28:50;;;;;;;22.00;18.73;;;11.50;92.30;;;;;;5033156;28;20521;-55
2022/05/04 06:34:12;;;;;;;23.17;18.63;;;11.50;92.90;;;;;;4975325;28;20552;-55
2022/05/04 06:36:40;;;;;;;25.93;18.67;;;11.70;93.20;;;;;;5019950;28;20493;-55
2022/05/04 06:39:08;;;;;;;23.03;19.53;;;12.00;93.50;;;;;;5037491;28;20480;-55
2022/05/04 06:41:37;;;;;;;22.50;19.23;;;12.30;94.30;;;;;;5038994;28;20562;-56
2022/05/04 06:44:04;;;;;;;20.03;16.80;;;12.70;93.40;;;;;;5034399;28;20479;-56
2022/05/04 06:46:31;;;;;;;19.60;15.63;;;13.00;92.70;;;;;;5043975;28;20506;-56
2022/05/04 06:48:58;;;;;;;20.90;16.63;;;13.30;92.00;;;;;;5035674;28;20479;-56
2022/05/04 06:51:25;;;;;;;25.07;16.77;;;13.60;92.30;;;;;;5038091;28;20495;-55
2022/05/04 06:53:52;;;;;;;23.50;16.60;;;13.90;91.70;;;;;;5039305;28;20479;-55
2022/05/04 06:56:19;;;;;;;20.57;16.57;;;14.20;91.20;;;;;;5039610;28;21043;-56
2022/05/04 06:58:47;;;;;;;19.77;16.50;;;14.50;90.70;;;;;;5038135;28;20822;-56
2022/05/04 07:01:14;;;;;;;24.70;17.63;;;14.60;90.30;;;;;;5040533;28;20495;-56
2022/05/04 07:03:40;;;;;;;19.43;15.43;;;14.90;90.60;;;;;;5038168;28;20484;-56
2022/05/04 07:06:07;;;;;;;21.20;16.70;;;15.20;90.90;;;;;;5043068;28;20470;-56
2022/05/04 07:08:34;;;;;;;22.83;17.87;;;15.50;89.00;;;;;;5051709;28;20968;-56
2022/05/04 07:11:01;;;;;;;24.70;15.40;;;15.80;91.00;;;;;;5036014;28;20490;-56
2022/05/04 07:13:28;;;;;;;19.93;15.30;;;16.00;88.40;;;;;;5030449;28;21000;-56
2022/05/04 07:15:56;;;;;;;19.87;15.40;;;16.20;88.10;;;;;;5040509;28;20483;-55
2022/05/04 07:18:23;;;;;;;18.60;15.87;;;16.40;90.00;;;;;;5032922;28;20478;-55
2022/05/04 07:20:50;;;;;;;17.10;15.20;;;16.60;88.30;;;;;;5034802;28;20496;-55
2022/05/04 07:23:18;;;;;;;19.00;15.77;;;16.90;87.80;;;;;;5016912;28;20981;-55
2022/05/04 07:25:45;;;;;;;19.73;15.57;;;17.30;90.30;;;;;;5025900;28;20818;-55
2022/05/04 07:28:12;;;;;;;17.37;15.53;;;17.70;88.60;;;;;;5026241;28;20485;-54
2022/05/04 07:30:38;;;;;;;21.27;15.03;;;18.10;88.40;;;;;;5037132;28;20489;-54
2022/05/04 07:33:07;;;;;;;20.47;15.33;;;18.50;87.40;;;;;;5047645;28;20484;-54
2022/05/04 07:35:34;;;;;;;25.20;16.33;;;18.90;86.20;;;;;;5054889;28;20976;-54
2022/05/04 07:38:00;;;;;;;20.53;15.10;;;19.20;86.10;;;;;;5033768;28;21070;-55
2022/05/04 07:43:16;;;;;;;18.20;13.47;;;19.80;84.60;;;;;;4967176;28;20516;-54
2022/05/04 07:45:43;;;;;;;16.73;14.00;;;20.10;84.40;;;;;;5066721;28;20979;-53
2022/05/04 07:48:11;;;;;;;18.20;14.67;;;20.40;84.30;;;;;;5042905;28;21065;-54
2022/05/04 07:50:38;;;;;;;15.70;14.10;;;20.70;84.10;;;;;;5045747;28;20494;-54
2022/05/04 07:53:05;;;;;;;16.00;14.40;;;21.00;82.20;;;;;;5045474;28;21036;-54
2022/05/04 07:55:32;;;;;;;15.30;13.70;;;21.20;81.30;;;;;;5042074;28;20479;-53
2022/05/04 07:57:59;;;;;;;18.40;13.47;;;21.50;81.80;;;;;;5041818;28;20506;-53
2022/05/04 08:05:56;;;;;;;15.40;13.40;;;22.10;79.50;;;;;;5036545;28;20531;-54
2022/05/04 08:08:23;;;;;;;15.50;12.97;;;22.30;79.30;;;;;;5041166;28;20486;-53
2022/05/04 08:10:50;;;;;;;15.23;12.77;;;22.50;77.20;;;;;;5045927;28;20971;-54
2022/05/04 08:13:19;;;;;;;14.70;13.00;;;22.70;77.70;;;;;;5046498;28;20487;-53
2022/05/04 08:15:46;;;;;;;15.53;13.13;;;22.90;79.40;;;;;;5046316;28;20526;-54
2022/05/04 08:18:14;;;;;;;14.50;13.00;;;23.00;74.80;;;;;;5040038;28;20739;-53
2022/05/04 08:20:41;;;;;;;14.87;13.33;;;23.10;76.20;;;;;;5047278;28;20468;-54
2022/05/04 08:23:09;;;;;;;15.63;14.03;;;23.00;74.10;;;;;;5045040;28;20533;-53
2022/05/04 08:25:36;;;;;;;14.27;12.67;;;22.70;76.60;;;;;;5044404;28;20552;-53
2022/05/04 08:28:03;;;;;;;13.17;11.93;;;22.90;77.50;;;;;;5055097;28;21143;-53
2022/05/04 08:30:29;;;;;;;14.13;12.20;;;23.20;75.00;;;;;;5051339;28;20474;-54
2022/05/04 08:32:56;;;;;;;14.87;13.20;;;23.20;72.40;;;;;;5041842;28;20483;-53
2022/05/04 08:35:24;;;;;;;15.80;13.60;;;23.20;73.80;;;;;;5062092;28;20471;-57
2022/05/04 08:37:51;;;;;;;18.57;14.07;;;23.40;75.00;;;;;;5038760;28;20857;-53
2022/05/04 08:40:17;;;;;;;14.83;13.43;;;23.60;74.30;;;;;;5057002;28;20480;-53
2022/05/04 08:42:46;;;;;;;13.23;11.93;;;23.80;73.20;;;;;;5048993;28;20916;-53
2022/05/04 08:45:14;;;;;;;14.53;13.03;;;24.00;72.80;;;;;;5040391;28;20489;-53
2022/05/04 08:47:42;;;;;;;14.10;12.67;;;24.20;71.00;;;;;;5043986;28;20556;-53
2022/05/04 08:50:11;;;;;;;13.60;12.40;;;24.40;73.60;;;;;;5044516;28;20593;-53
2022/05/04 08:52:40;;;;;;;15.80;13.63;;;24.60;72.70;;;;;;5043670;28;20504;-53
2022/05/04 08:55:10;;;;;;;14.37;12.97;;;24.30;69.50;;;;;;5035071;28;20475;-54
2022/05/04 08:57:37;;;;;;;16.50;14.90;;;24.10;71.80;;;;;;5040314;28;20490;-53
2022/05/04 09:00:05;;;;;;;15.23;13.20;;;24.30;72.00;;;;;;5043389;28;20485;-54
2022/05/04 09:02:32;;;;;;;15.07;13.53;;;24.50;71.30;;;;;;5036362;27;20485;-54
2022/05/04 09:05:13;;;;;;;15.93;13.53;;;24.70;71.00;;;;;;5046179;28;20461;-54
2022/05/04 09:07:41;;;;;;;14.27;12.73;;;25.00;69.60;;;;;;5059047;28;21454;-53
2022/05/04 09:10:15;;;;;;;15.37;13.57;;;25.20;69.80;;;;;;5045304;28;21385;-53
2022/05/04 09:12:43;;;;;;;13.87;12.37;;;25.30;67.50;;;;;;5044009;28;20484;-53
2022/05/04 09:15:18;;;;;;;15.63;13.13;;;25.30;67.50;;;;;;5044085;28;20460;-53
2022/05/04 09:17:46;;;;;;;12.60;11.43;;;25.30;69.50;;;;;;5032932;28;20491;-53
2022/05/04 09:22:59;;;;;;;17.07;12.40;;;25.40;70.20;;;;;;5017133;28;20487;-53
2022/05/04 09:25:25;;;;;;;14.77;13.37;;;25.60;69.80;;;;;;5041555;28;20882;-53
2022/05/04 09:27:52;;;;;;;13.60;12.20;;;25.60;68.90;;;;;;5037922;28;20448;-53
2022/05/04 09:30:25;;;;;;;13.57;12.27;;;25.70;69.60;;;;;;5044558;28;21370;-54
2022/05/04 09:32:52;;;;;;;12.27;10.83;;;25.40;65.20;;;;;;5038607;28;21027;-53
2022/05/04 09:35:19;;;;;;;12.37;11.23;;;25.60;68.00;;;;;;5043345;28;20612;-53
2022/05/04 09:46:05;;;;;;;12.37;11.17;;;26.10;69.20;;;;;;5042241;28;20457;-53
2022/05/04 09:48:34;;;;;;;14.80;13.23;;;25.80;66.60;;;;;;5039697;28;21014;-53
2022/05/04 09:51:05;;;;;;;14.23;12.30;;;25.70;68.70;;;;;;5043425;28;20471;-53
2022/05/04 09:53:32;;;;;;;13.93;12.63;;;25.30;68.00;;;;;;5039949;28;20478;-53
2022/05/04 09:56:01;;;;;;;13.50;12.20;;;25.10;66.70;;;;;;5045018;28;20499;-52
2022/05/04 09:58:29;;;;;;;13.07;11.90;;;25.00;68.40;;;;;;5032810;28;20447;-53
2022/05/04 10:00:57;;;;;;;13.10;11.80;;;24.80;68.10;;;;;;5036890;28;20477;-52
2022/05/04 10:03:24;;;;;;;14.10;12.80;;;24.60;69.10;;;;;;5034745;28;20460;-52
2022/05/04 10:05:53;;;;;;;14.63;13.23;;;24.20;67.80;;;;;;5035497;28;20479;-52
2022/05/04 10:08:21;;;;;;;13.93;12.40;;;24.00;68.50;;;;;;5040620;28;20587;-51
2022/05/04 10:10:49;;;;;;;13.70;11.23;;;24.00;71.00;;;;;;5039116;28;20462;-51
2022/05/04 10:13:19;;;;;;;15.97;14.33;;;23.70;66.00;;;;;;5041642;28;20906;-52
2022/05/04 10:15:51;;;;;;;15.07;13.17;;;23.50;70.00;;;;;;5044027;28;20473;-51
2022/05/04 10:18:23;;;;;;;11.57;10.50;;;23.40;71.70;;;;;;5041797;28;20487;-52
2022/05/04 10:21:00;;;;;;;12.20;11.07;;;23.60;71.50;;;;;;5045393;28;20823;-52
2022/05/04 10:23:31;;;;;;;14.60;12.03;;;23.90;70.30;;;;;;5043560;28;20483;-52
2022/05/04 10:25:59;;;;;;;12.10;10.90;;;24.40;73.70;;;;;;5040054;28;20492;-51
2022/05/04 10:28:27;;;;;;;17.53;11.27;;;24.80;73.40;;;;;;5040316;28;20513;-52
2022/05/04 10:30:55;;;;;;;12.73;10.93;;;25.10;70.00;;;;;;5046328;28;21018;-52
2022/05/04 10:33:28;;;;;;;13.80;12.40;;;25.20;70.60;;;;;;5045693;28;21124;-52
2022/05/04 10:35:58;;;;;;;13.03;11.10;;;25.40;69.20;;;;;;5046156;28;20718;-52
2022/05/04 10:38:35;;;;;;;12.50;11.30;;;25.70;68.40;;;;;;5046004;28;20760;-52
2022/05/04 10:41:06;;;;;;;13.03;11.60;;;25.90;67.40;;;;;;5035621;28;20493;-52
2022/05/04 10:43:36;;;;;;;11.87;10.73;;;26.00;66.20;;;;;;5043388;28;20468;-52
2022/05/04 10:46:11;;;;;;;13.63;11.00;;;26.30;68.20;;;;;;5047659;28;20552;-52
2022/05/04 10:48:42;;;;;;;12.67;11.47;;;25.80;62.40;;;;;;5035916;28;20471;-55
2022/05/04 10:51:18;;;;;;;13.67;12.30;;;25.70;68.70;;;;;;5052549;28;20527;-52
2022/05/04 10:53:49;;;;;;;13.30;12.07;;;25.60;67.30;;;;;;5049819;28;20463;-53
2022/05/04 10:56:18;;;;;;;15.87;12.53;;;25.80;67.30;;;;;;5067228;28;20478;-52
2022/05/04 10:58:55;;;;;;;13.90;11.17;;;25.90;67.60;;;;;;5040591;28;20486;-52
2022/05/04 11:01:24;;;;;;;15.10;11.70;;;26.20;68.60;;;;;;5045305;28;21004;-52
2022/05/04 11:03:55;;;;;;;13.90;12.60;;;26.40;66.00;;;;;;5044892;28;20478;-52
2022/05/04 11:06:26;;;;;;;13.40;12.10;;;26.10;60.60;;;;;;5045997;28;21341;-51
2022/05/04 11:08:56;;;;;;;14.00;11.20;;;25.70;61.50;;;;;;5045845;28;20885;-51
2022/05/04 11:11:23;;;;;;;12.47;11.30;;;25.70;67.60;;;;;;5042881;28;20457;-53
2022/05/04 11:13:51;;;;;;;12.97;11.60;;;26.00;68.30;;;;;;5040419;28;20504;-52
2022/05/04 11:16:20;;;;;;;13.20;11.90;;;26.20;68.10;;;;;;5047664;28;20461;-52
2022/05/04 11:18:46;;;;;;;13.47;12.13;;;26.50;65.80;;;;;;5045292;28;20487;-52
2022/05/04 11:21:14;;;;;;;10.87;9.90;;;26.80;66.80;;;;;;5041671;28;20487;-52
2022/05/04 11:23:46;;;;;;;14.43;12.97;;;26.70;65.90;;;;;;5037525;28;20458;-55
2022/05/04 11:26:21;;;;;;;13.97;12.87;;;26.00;60.90;;;;;;5045681;28;20586;-53
2022/05/04 11:28:48;;;;;;;12.10;11.00;;;25.60;62.70;;;;;;5038843;28;20448;-52
2022/05/04 11:31:17;;;;;;;11.97;10.97;;;25.20;63.40;;;;;;5046926;28;20457;-53
2022/05/04 11:33:45;;;;;;;11.17;10.07;;;25.30;65.60;;;;;;5045566;28;20536;-52
2022/05/04 11:36:12;;;;;;;11.70;10.50;;;25.10;65.80;;;;;;5043716;28;20475;-52
2022/05/04 11:38:40;;;;;;;13.33;11.93;;;24.70;64.50;;;;;;5056900;28;20471;-52
2022/05/04 11:41:08;;;;;;;15.93;11.20;;;24.50;65.10;;;;;;5044411;28;21063;-52
2022/05/04 11:43:36;;;;;;;10.93;9.80;;;24.50;63.90;;;;;;5046685;28;20964;-52
2022/05/04 11:46:06;;;;;;;11.43;10.33;;;24.60;67.60;;;;;;5044967;28;20474;-52
2022/05/04 11:48:37;;;;;;;11.77;10.67;;;24.50;67.50;;;;;;5042790;28;20437;-52
2022/05/04 11:51:05;;;;;;;12.13;10.00;;;24.40;67.40;;;;;;5066622;28;20495;-52
2022/05/04 11:53:32;;;;;;;13.20;10.40;;;24.50;66.30;;;;;;5040471;28;20847;-52
2022/05/04 11:55:59;;;;;;;11.57;10.57;;;24.30;65.40;;;;;;5041918;28;20479;-52
2022/05/04 11:58:27;;;;;;;12.67;10.77;;;24.10;67.60;;;;;;5045293;28;20867;-52
2022/05/04 12:00:54;;;;;;;11.50;10.40;;;24.10;68.80;;;;;;5051547;28;20919;-52
2022/05/04 12:03:23;;;;;;;12.03;10.93;;;24.20;68.90;;;;;;5048226;28;20904;-52
2022/05/04 12:05:57;;;;;;;11.17;10.07;;;24.40;69.80;;;;;;5045921;28;20489;-52
2022/05/04 12:08:28;;;;;;;14.23;9.93;;;24.30;65.00;;;;;;5041335;28;20868;-52
2022/05/04 12:11:01;;;;;;;11.07;10.07;;;24.50;66.10;;;;;;5040812;28;20625;-52
2022/05/04 12:13:28;;;;;;;11.80;10.60;;;24.20;64.90;;;;;;5036906;28;20494;-52
2022/05/04 12:15:56;;;;;;;11.30;10.30;;;24.40;65.20;;;;;;5047076;28;20475;-51
2022/05/04 12:18:28;;;;;;;12.97;11.77;;;24.40;64.70;;;;;;5040962;28;20482;-52
2022/05/04 12:20:56;;;;;;;10.37;9.37;;;24.40;68.50;;;;;;5045818;28;20532;-52
2022/05/04 12:23:24;;;;;;;10.97;10.00;;;24.30;66.30;;;;;;5045505;28;20456;-52
2022/05/04 12:25:51;;;;;;;11.80;10.60;;;24.10;66.00;;;;;;5041369;28;21152;-52
2022/05/04 12:28:18;;;;;;;10.70;9.50;;;23.80;64.70;;;;;;5043786;28;20490;-52
2022/05/04 12:33:31;;;;;;;15.33;13.83;;;23.60;65.90;;;;;;5038229;28;20513;-52
2022/05/04 12:36:02;;;;;;;11.70;10.70;;;23.80;69.00;;;;;;5046353;28;20482;-52
2022/05/04 12:38:29;;;;;;;12.47;11.30;;;23.80;65.00;;;;;;5042434;28;20490;-52
2022/05/04 12:41:00;;;;;;;12.50;11.40;;;23.70;67.30;;;;;;5041695;28;20502;-53
2022/05/04 12:43:34;;;;;;;10.57;9.67;;;23.70;67.10;;;;;;5044334;28;20626;-52
2022/05/04 12:46:04;;;;;;;10.73;9.87;;;23.70;66.40;;;;;;5055420;28;20497;-57
2022/05/04 12:48:32;;;;;;;12.23;10.70;;;23.90;68.20;;;;;;5022112;28;20505;-52
2022/05/04 12:51:00;;;;;;;11.80;10.60;;;24.00;69.60;;;;;;5047300;28;20487;-52
2022/05/04 12:53:27;;;;;;;11.90;10.10;;;24.10;66.00;;;;;;5024112;28;20988;-52
2022/05/04 12:58:40;;;;;;;14.70;10.50;;;23.70;67.40;;;;;;5038829;28;20739;-52
2022/05/04 13:01:07;;;;;;;11.60;9.70;;;23.80;66.00;;;;;;5035424;28;20482;-52
2022/05/04 13:03:34;;;;;;;13.43;12.13;;;23.90;66.80;;;;;;5041058;28;20477;-52
2022/05/04 13:06:02;;;;;;;10.30;9.50;;;24.20;69.20;;;;;;5044505;28;20477;-52
2022/05/04 13:08:29;;;;;;;13.53;12.00;;;24.30;65.10;;;;;;5035222;28;20478;-53
2022/05/04 13:10:56;;;;;;;11.70;10.50;;;24.60;67.00;;;;;;5047331;28;20538;-52
2022/05/04 13:13:25;;;;;;;11.73;10.47;;;25.10;69.30;;;;;;5058113;28;20479;-53
2022/05/04 13:15:52;;;;;;;12.70;11.60;;;25.20;64.70;;;;;;5040990;28;20560;-53
2022/05/04 13:18:19;;;;;;;10.83;9.80;;;25.20;66.20;;;;;;5032919;28;20478;-53